鹿児島空港

2019/04/08

懐古:島飛 奄美・沖永良部・鹿児島空港 2001/7/16 mon

島飛び3日目。この日も奄美大島から出発。

20010716_0rjka_00ja350n

JA350N B350

20010716_0rjka_01ja6292

JA6292 AS350B

20010716_0rjka_02ja8594

JA8594 徳之島行き

20010716_0rjka_03ja6292

ビーチから乗り継いでへりで移動 この時期、衆議院議員選挙関係かな

20010716_0rjka_04ja4028

JA4028 C206 KKK

20010716_0rjka_05ja8974

RAC852 RJKA-ROAH JA8974 DHC8-103Q

20010716_0rjka_06ja8261

JAS950 RJKA-RJFK JA8261 MD-81

20010716_0rjka_07ja8704

JAC940 RJKI-RJKA JA8704 SF3

20010716_0rjka_08ja8900

JAC973 RJKA-RJKB JA8900 SF3

20010716_0rjka_09ja8900

では飛びます

20010716_0rjka_10rjka

奄美大島からお別れ

20010716_1rjkb_11okinoerabuis

見えてみたのは、沖永良部島

20010716_1rjkb_12ja8777

YSの後ろのかわいいVFR室。このYSは能登の航空学園で余生を送っている。

20010716_1rjkb_13rjkb

沖永良部空港ターミナル

20010716_1rjkb_14ja8777

JAC092 RJKB-RJFK JA8777 YS11A-500

20010716_1rjkb_15rjkb

ターミナル正面 この日も茸狩

20010716_1rjkb_16on

空港西側の 沖永良部NDB(OC)

20010716_1rjkb_17onc

島を南に下って次の集落に赤いシャッポのTACAN

20010716_1rjkb_18onc

大型の航空路VOR

20010716_1rjkb_19onc

沖永良部VORTAC(ONC)

20010716_1rjkb_20yoronis

島の南から与論島が見渡せます。

20010716_1rjkb_21okinoerabusb

沖永良部島分屯基地 第55警戒群

現在は警戒隊となっているが、分屯基地指令は富山県出身、303飛行隊長経験者でした。

20010716_1rjkb_22kunigamimisakilh

国頭岬灯台 島の東北端

20010716_1rjkb_23yakuniyalh

20010716_1rjkb_24yakuniyalh

矢護仁屋埼灯台 島の西北端

20010716_1rjkb_25ja8776

JAC095 RJFK-RJKB JA8776 YS11A-500

20010716_1rjkb_26ja8776

背後にNDBが見えてます。折り返しJAC096で鹿児島へ

20010716_2ja8776_27suwanosejimaaf

諏訪瀬島飛行場

20010716_2ja8776_28satsumaioujimaaf

薩摩硫黄島飛行場

20010716_3rjfk_29ja8776

JAC096 RJKB-RJFK JA8776 YS11A-500

夕焼けに照らされて島飛終了。この後JAS378で東京に帰りました。

 

| | コメント (0)

2018/06/09

JAC2 鹿児島空港 2018/5/16 wed

その1からつづき

場所を東側から西側に移動。まずは、茶畑脇で。

RJFK 160400Z 20006KT 120V240 9999 VA FEW035 BKN/// 28/13 Q1013

20180516_rjfk_200ja327j

JAL629 RJTT-RJFK JA327J B737-846

20180516_rjfk_201ja33nh

JA33NH EC-135T2 ANH

20180516_rjfk_202ja001c

JAC3785 RJFK-RJKI JA001C SF3

20180516_rjfk_203ja16kg

JA16KG A109E

20180516_rjfk_204ja8971

ANA623A RJTT-RJFK JA8971 B767-381

20180516_rjfk_205ja8971

RJFK 160500Z 16008KT 130V200 9999 VA FEW030 BKN/// 28/16 Q1013 RMK 1CU030 A2992 ASH FALL VOLCANIC ASH CLOUD E-S

20180516_rjfk_206ja05fj

上から見ると、だいぶ色が薄くなっているフジドリーム

20180516_rjfk_207ja03jc

JAC3769 RJFK-RJFG JA03JC ATR42-600

20180516_rjfk_208ja01tc

JA01TC SR20 JGA

20180516_rjfk_209ja850c

JAC3733 RJFK-RJKA JA850C DHC8-402Q

20180516_rjfk_210ja337j

JAL648 RJFK-RJTT JA337J B737-846

20180516_rjfk_211ja844c

JAC844C LOCAL JA844C DHC8-402Q

20180516_rjfk_212ja811x

SNJ75 RJTT-RJFK JA811X B737-86N

20180516_rjfk_213ja8971

ANA626 RJFK-RJTT JA8971 B767-381

RJFK 160600Z 17007KT 140V210 9999 VA FEW030 BKN/// 28/16 Q1012

20180516_rjfk_214ja4061

JA4061 C172P NJA

20180516_rjfk_215sweeper

空いてるスポットはスイープ

20180516_rjfk_216ja851c

JAC3728 RJKA-RJFK JA851C DHC8-402Q

20180516_rjfk_217ja851a

ANA355 RJFK-RJGG JA851A DHC8-402Q

20180516_rjfk_218ja602j

JAL649 RJTT-RJFK JA602J B767-346ER

20180516_rjfk_219ja247j

ERJの競演

20180516_rjfk_220ja73nc

SKY306 RJFK-RJTT JA73NC B737-8FZ

20180516_rjfk_221ja05fj

FDA134 RJFK-RJNS JA05FJ ERJ-175STD

20180516_rjfk_222ja16kg

JA16KG

20180516_rjfk_223ja8578

ANA625 RJTT-RJFK JA8578 B767-381

20180516_rjfk_224ja227j

JAL3796 RJKN-RJFK JA227J ERJ-170STD

20180516_rjfk_225ja811x

SNJ78 RJFK-RJTT JA811X B737-86N

RJFK 160700Z 21008KT 170V230 9999 VA FEW025 BKN/// 27/16 Q1012 RMK 1CU025 A2990 ASH FALL VOLCANIC ASH CLOUD SE-S

20180516_rjfk_226ja69an

ANA547 RJOO-RJFK JA69AN B737-881

20180516_rjfk_227ja851c

JAC3809 RJFK-RJKB JA851C DHC8-402Q

20180516_rjfk_228ja247j

JAC2410 RJFK-RJOO JA247J ERJ-190STD

20180516_rjfk_229ja844c

JAC844C LOCAL JA844C DHC8-402Q

20180516_rjfk_230ja227j

JAL3797 RJFK-RJKB JA227J ERJ-170STD

20180516_rjfk_231ja737q

SKY305 RJTT-RJFK JA737Q B737-86N

20180516_rjfk_232ja03jc

JAC3768 RJFG-RJFK JA03JC ATR42-600

20180516_rjfk_233ja218j

JAL3730 RJKA-RJFK JA218J ERJ-170STD

20180516_rjfk_234ja227j

JAL3797 RJFK-RJKB JA227J ERJ-170STD

20180516_rjfk_235ja8642

JAC3750 RJFC-RJFK JA8642 SF3

20180516_rjfk_236ja602j

JAL650 RJFK-RJTT JA602J B767-346ER

20180516_rjfk_237ja8579

ANA628 RJFK-RJTT JA8579 B767-381

20180516_rjfk_238dep

RJFK 160800Z 18007KT 9999 VCVA FEW025 BKN/// 27/17 Q1012 RMK 1CU025 A2990 ASH FALL VOLCANIC ASH CLOUD SE-S

| | コメント (0) | トラックバック (0)

2018/06/08

JAC 鹿児島空港 2018/5/16 wed

JACと言えば、ジャパンアクションクラブ。千葉真一率いるアクションスターの一団で、志保美悦子のような強い女に震えたなぁ・・ ちゃう、ちゃう朝夢は置いといて、今日はジャパンエアーコミューター。春のLCCツアーに選んだのは、ATRさんが就航した鹿児島空港でした。

20180516_rjfk_100sunrise

おやじの朝は早い。韓国岳から朝日が。新燃岳と桜島の火山灰が浮遊しているので、いつも以上に赤くもやった空です。

RJFK 152100Z 36003KT 9999 VCVA NSC 16/16 Q1013 RMK A2994 ASH FALL VOLCANIC ASH CLOUD NE-S

早めに朝食を採ったのだが、空港の朝も早い。ガンガン始発便が北向きに離陸していく。

RJFK 152200Z 36004KT 9999 VCVA NSC 18/16 Q1014 RMK A2995 ASH FALL VOLCANIC ASH CLOUD E-S

とっとと支度をして、自転車でノンビリポイントを探しながら出発です。

20180516_rjfk_101ja8595

ANA542 RJFK-RJOO JA8595 B737-54K

動き出してスグ、まだ定まらない内にも始発便が上がってくる。逆光ながら記録、記録。

20180516_rjfk_102ja603j

JAL640 RJFK-RJTT JA603J B767-346ER

RJFK 152300Z VRB01KT 9999 VA NSC 22/16 Q1014 RMK 1AC150 A2995 ASH FALL VOLCANIC ASH CLOUD NE-S

20180516_rjfk_103ja8xxp

APJ191 RJBB-RJFK JA809P A320-214

20180516_rjfk_104ja01jc

早速ATRさん

20180516_rjfk_105ja01jc

JAC3723 RJFK-RJKA JA01JC ATR42-600

20180516_rjfk_106ja8997

ANA619 RJTT-RJFK JA8997 A320-211

20180516_rjfk_107ja8569

ANA620 RJFK-RJTT JA8569 B767-381

20180516_rjfk_108ja04jc

うひょ ATRさんが訓練に・・

20180516_rjfk_109ja04jc

JAC04JC LOCAL JA04JC ATR42-600

20180516_rjfk_110ja54an

ANA541 RJOO-RJFK JA54AN B737-881

20180516_rjfk_111ja245j

JAL2401 RJOO-RJFK JA245J ERJ-190STD

20180516_rjfk_112ja04jc

使用滑走路が18に変わって、一周して来ました。

20180516_rjfk_113ja04jc

風はちょっと東よりかな

20180516_rjfk_114ja04jc

少しずつ移動しながらRW18エンド

20180516_rjfk_115ja04jc

なんとか順光側

20180516_rjfk_116ja912a

JA912A S-76D JCG

RJFK 160000Z 16003KT 110V200 9999 VCVA NSC 24/15 Q1014 RMK 1AC150 A2996 ASH FALL VOLCANIC ASH CLOUD E-S

20180516_rjfk_117ja04jc

茶畑の向こうにATR

20180516_rjfk_118janca

上空を東南アジアに向かう機体がバンバン通過していきます。

20180516_rjfk_119ja337j

JAL642 RJFK-RJTT JA337J B737-846

20180516_rjfk_120ja04jc

ATRさんターニングファイナル

20180516_rjfk_121ja04jc

なかなか、かっこいっすよ

20180516_rjfk_122ja73nd

SKY301 RJTT-RJFK JA73ND B737-8FZ

20180516_rjfk_123ja602j

JAL643 RJTT-RJFK JA602J B767-346ER

20180516_rjfk_124ja04jc

JA04JC

20180516_rjfk_125ja227j

JAL3722 RJKA-RJFK JA227J ERJ-170STD

20180516_rjfk_127ja04jc

ずんぐりした感じが、おさかな

20180516_rjfk_128ja8647

JAC3803 RJFK-RJKB JA8647 SF3

20180516_rjfk_129ja04jc

まだまだ続きます

RJFK 160100Z 16004KT 120V210 9999 VCVA NSC 26/12 Q1014 RMK 1AC150 A2996 ASH FALL VOLCANIC ASH CLOUD SE-S

20180516_rjfk_130ja218j

JAL3792 RJKN-RJFK JA218J ERJ-170STD

20180516_rjfk_131ja804x

SNJ83 RJFK-ROAH JA804X B737-86N

20180516_rjfk_132ja17an

ANA352 RJFK-RJGG JA17AN B737-781

20180516_rjfk_133ja811x

SNJ84 ROAH-RJFK JA811X B737-86N

20180516_rjfk_134ja248j

JAL2403 RJOO-RJFK JA248J ERJ-190STD

20180516_rjfk_135ja850c

JAC3740 RJFC-RJFK JA850C DHC8-402Q

20180516_rjfk_136ja851c

JAC3743 RJFK-RJFC JA851C DHC8-402Q

20180516_rjfk_137ja8594

JAC3760 RJFG-RJFK JA8594 SF3

20180516_rjfk_138ja227j

JAL3727 RJFK-RJKA JA227J ERJ-170STD

20180516_rjfk_139ja73nd

SKY132 RJFK-RJBE JA73ND B737-8FZ

20180516_rjfk_140ja737q

SKY131 RJBE-RJFK JA737Q B737-86N

20180516_rjfk_141ja844c

JAC3800 RJKB-RJFK JA844C DHC8-402Q

20180516_rjfk_142ja8579

ANA621 RJTT-RJFK JA8579 B767-381

20180516_rjfk_143ja8579

リバースすると火山灰がブワーッと

20180516_rjfk_144hl8241

KAL785 RKSI-RJFK HL8241 B737-8BK

20180516_rjfk_145ja01jc

JAC3724 RJKA-RJFK JA01JC ATR42-600

20180516_rjfk_146ja218j

JAL3793 RJFK-RJKN JA218J ERJ-170STD

20180516_rjfk_147ja811x

SNJ74 RJFK-RJTT JA811X B737-86N

RJFK 160200Z 18004KT 130V230 9999 VCVA NSC 27/12 Q1014 RMK 1AC150 A2996 ASH FALL VOLCANIC ASH CLOUD E-S

20180516_rjfk_148ja248j

JAL2404 RJFK-RJOO JA248J ERJ-190STD

20180516_rjfk_149ja8595

ANA543 RJOO-RJFK JA8595 B737-54K

20180516_rjfk_150ja8594

JAC3763 RJFK-RJFG JA8594 SF3

20180516_rjfk_151ja602j

桜島の噴煙回避で、たまにRW36デパーチャー

20180516_rjfk_152ja602j

JAL644Y RJFK-RJTT JA602J B767-346ER

20180516_rjfk_153ja850c

JAC3823 RJFK-RORY JA850C DHC8-402Q

20180516_rjfk_154blca

HEX546 VHHH-RJFK B-LCA A320-232

20180516_rjfk_155ja01jc

JAC3745 RJFK-RJFC JA01JC ATR42-600

20180516_rjfk_156ja812x

SNJ73 RJTT-RJFK JA812X B737-86N

20180516_rjfk_157ja737q

SKY304  RJFK-RJTT JA737Q B737-86N

20180516_rjfk_158ja8579

ANA624 RJFK-RJTT JA8579 B767-381

20180516_rjfk_159ja8579

相変わらず灰だらけ・・

20180516_rjfk_160ja8595

ANA546 RJFK-RJOO JA8595 B737-54K

20180516_rjfk_161ja844c

JAC3729 RJFK-RJKA JA844C DHC8-402Q

20180516_rjfk_162ja246j

JAL2407 RJOO-RJFK JA246J ERJ-190STD

20180516_rjfk_163ja16kg

JA16KG A109E

20180516_rjfk_164ja659j

JAL645 RJTT-RJFK JA659J B767-346ER

RJFK 160300Z 16005KT 100V200 9999 VA NSC 28/10 Q1014 RMK 1AC150 A2996 ASH FALL VOLCANIC ASH CLOUD E-S

20180516_rjfk_165ja850a

ANA353 RJGG-RJFK JA850A DHC8-402Q

20180516_rjfk_166hl8241

KAL786 RJFK-RKSI HL8241 B737-8BK

20180516_rjfk_167ja31uk

JA31UK C172S SJU

20180516_rjfk_168b6432

CSE761 ZSPD-RJFK B-6432 A319-115

20180516_rjfk_169ja912a

JA912A S-76D JCG

20180516_rjfk_170ja227j

JAL3726 RJKA-RJFK JA227J ERJ-170STD

20180516_rjfk_171ja812x

がんばるもん じゃないんだ

20180516_rjfk_172ja812x

SNJ76 RJFK-RJTT JA812X B737-86N

20180516_rjfk_173ja8594

JAC3762 RJFG-RJFK JA8594 SF3

20180516_rjfk_174ja246j

JAL2406 RJFK-RJOO JA246J ERJ-190STD

20180516_rjfk_175ja16kg

JA16KG

20180516_rjfk_176ja850a

ANA354 RJFK-RJGG JA850A DHC8-402Q

20180516_rjfk_177ja16kg

JA16KG

20180516_rjfk_178ja01jc

JAC3744 RJFC-RJFK JA01JC ATR42-600

20180516_rjfk_179ja659j

JAL646 RJFK-RJTT JA659J B767-346ER

20180516_rjfk_180ja218j

JAL3794 RJKN-RJFK JA218J ERJ-170STD

20180516_rjfk_181blca

どこでも見るようになったエクスプレス

20180516_rjfk_182blca

HEX547 RJFK-VHHH B-LCA A320-232

20180516_rjfk_183ja8642

JAC3804 RJKB-RJFK JA8642 SF3

20180516_rjfk_184ja227j

JAL3795 RJFK-RJKN JA227J ERJ-170STD

20180516_rjfk_185ja8951

JA8951 SF3 JCG

20180516_rjfk_186ja73nc

SKY303 RJTT-RJFK JA73NC B737-8FZ

20180516_rjfk_187b6432

CSE762 RJFK-ZSPD B-6332 A319-115

陽が南中を過ぎて、場所移動しようと思うも、なかなかトラフィックが途切れず、ここで西側に移動します。

その2へつづく・・・

| | コメント (0) | トラックバック (0)

2006/10/23

空点描 NDB廃止 

20011202_rjfk_kg20010707_rjch_hw20000720_yokosuka_ndb1_1航空管制の近代化は着実に実施されています。各地のNDB廃止で、ここ数ヶ月のものを記録しておきます。

加治木NDB(KG) 2006.7.6廃止 函館NDB(HW) 2006.9.28 大子NDB(GO) 2006.10.26 横須賀NDB(YU) 2006.10.26

左:鹿児島空港内の航空灯台とAGタワーの間にあった加治木NDB 中:函館空港内にあった函館NDB 右:前にも掲出しましたが、旧海軍第二横須賀航空基地跡(長井)にあった横須賀NDB 大子無線標識所はとうとう訪ねることができずに、大子NDBについては記録がありません

| | コメント (0) | トラックバック (0)

2006/09/30

空点描 さよなら民航YS11 

20060325_rjfg_ja876620001127_rjfc_ja885920001127_rjfc_ys11ss小さい時、旅客機と言えばYS11でした。本日は、この国産旅客機が国内の民間航空から引退する日となりました。最終は、鹿児島-沖永良部 そこまで足を伸ばせませんが、後日最後の雄姿を拝んできます。

左:2006/3/25 新種子島空港 JA8766 中:2000/11/27 屋久島空港 JA8759 右:鹿児島空港へのファイナル時に美しい日の入り

| | コメント (0) | トラックバック (0)

2006/04/07

空紀行 NEWFACE登場 鹿児島空港 2006/3/26

20060326_rjfk_0120060326_rjfk_0220060326_rjfk_03種子島から鹿児島で乗り継いで伊丹へ帰ります。その後陸路、これが辛い 乗機JAL2412 RJFK-RJOO MD90 JA8064 おりしも、ANKの新型機B737-700がやってきました。

左:ANA355 RJGG-RJFK JA03AN 中:ウイングレットが目立ちすぎ 左:折り返しANA358でセントレアに戻ります

| | コメント (0) | トラックバック (0)

2006/03/12

空思案 4月以降の撤退 2006/3

20040417_RJTT_JA825620041106_RJFK_JA767D20050617_RJTT_JA767A新北九州進出と一時話題になったスカイマークであるが、その後それは撤回となって羽田-新千歳進出することとなった。その羽田発着枠を捻出するためか、採算重視か、羽田-鹿児島、羽田-徳島は大胆にも撤収されることに。各就航地の地元は、裏切りとして非難ゴウゴウであったが、スカイマークは聞く耳あらず。鹿児島は4/21まで、徳島は4/13までで終了です。残念ながら、徳島就航の画像がとうとう手元にない状態で、しばらく海自基地祭にいっていないことに。このような撤退ニュースは、表明時期に話題にはなりますが、肝心の撤退時期には、ほとんど触れられていないことにチョット不満を感じますね。時刻表の欄外に何日までと記述されるだけ。これって不当表示?

左:徳島線に飛んでいたB767-200 JA8256 2004/4/17 RJTT 中:綺麗な霧島連山をバックに JA767D 2004/11/6 RJFK 右:なかなか新しい塗装機をゲットできていません JA767A 2005/6/17 RJTT 

| | コメント (0) | トラックバック (0)

2006/03/08

空紀行 雨の熊本 2006/2/20

20060220_RJFT_JA737A20060220_RJFT_JA857920060220_RJFT_JA81AM神戸空港開港記念ツアーの戻りは、鹿児島から陸路熊本に移動して、熊本から神戸に帰りました。熊本は生憎の雨、CAT1ギリギリのコンディションで、CAT3で降りれる便はいいですが、それ以外は何度かミスドアプローチして、皆さん苦労していました。空自のC1もアプローチしてきましたが、轟音を立てて姿も見せずに、どこかにRTBしていきました。また、熊本にも乗り入れているSNAは、ダイバートする場合は宮崎だそうで、もってかれたら大変ですね。せめて福岡にしてくれー

左:SNA JA737A 中:ここでもOpen神戸 ANA JA8579 右:AMX JA81AM

<旅程> 2/18 RJBE-ANA419/JA8389-RJFK 2/19 鹿児島空港-人吉産交バス-人吉-JR九州/九千坊号-熊本 2/20 RJFT-JEX3344/JA8523-RJBE

20060218_RJFK_ANA41920060219_hitoyoshi_kyusenbou20060220_RJFT_JEX3344左:ANA419 JA8389 RJFK 中:九千坊号キハ31-13 人吉駅 右:JEX3344 JA8523 RJFT

| | コメント (0) | トラックバック (0)

2006/03/07

空紀行 残りわずかYS11 鹿児島 2006/2/19

20060219_RJFK_JA871720060219_RJFK_JA876620060219_RJFK_JA8579神戸空港開港記念ツアーの目的地に選んだのは、鹿児島 今年9月で退役となるYS11を眺めてきました。

左:JA8717 中:JA8766 右:神戸空港開港唯一の記念機、ANA Open神戸 JA8579

| | コメント (0) | トラックバック (0)

その他のカテゴリー

BI Boading record aircraft Boading record ship FlightTracking lighthouse NAVAIDS RJNT LOG SKY MASSAGE US NAVY USMC うみ おか そら てつ アクシデント エアロック チーム室屋 三沢飛行場 上五島空港 下地島空港 下総飛行場 与那国空港 中標津空港 中部国際空港 久米島空港 五島福江空港 仙台空港 伊江島空港 但馬空港 佐賀空港 入間飛行場 八尾空港 八戸飛行場 出雲空港 函館空港 利尻空港 北九州空港 十勝飛行場 千歳飛行場 博物館 厚木飛行場 名古屋飛行場 喜界空港 嘉手納飛行場 場外 壱岐空港 大分空港 大湊飛行場 大阪国際空港 大館能代空港 天草空港 奄美空港 奥尻空港 宇部山口空港 宇都宮飛行場 宮古空港 宮崎空港 富山空港 小松島飛行場 小松飛行場 屋久島空港 山形空港 岐阜飛行場 岡山空港 岩国飛行場 帯広空港 広島空港 庄内空港 徳之島空港 徳島飛行場 成田国際空港 新潟空港 新田原飛行場 旭川空港 旭川飛行場 明野飛行場 普天間飛行場 木更津飛行場 札幌飛行場 東京国際空港 松山空港 松島飛行場 松本空港 横田飛行場 沖永良部空港 波照間空港 浜松飛行場 海上保安庁 海上自衛隊 海外 熊本空港 百里飛行場 相馬原飛行場 石垣空港 石見空港 礼文空港 神戸空港 福井空港 福岡空港 福島空港 秋田空港 種子島空港 空撮 立川飛行場 築城飛行場 美保飛行場 能登空港 舞鶴飛行場 航空自衛隊 芦屋飛行場 花巻空港 調布飛行場 警務消防 那覇空港 釧路空港 長崎空港 関西国際空港 陸上自衛隊 隠岐空港 霞ヶ浦飛行場 霞目飛行場 青森空港 静岡空港 静浜飛行場 飛行場跡 飛行船 鹿児島空港 鹿屋飛行場